createdAt,value
2017-06-02T00:02:21.948Z,62.50
2017-06-02T00:04:50.206Z,61.90
2017-06-02T00:07:18.457Z,62.40
2017-06-02T00:09:46.695Z,62.30
2017-06-02T00:12:14.953Z,62.40
2017-06-02T00:14:49.596Z,62.00
2017-06-02T00:17:17.849Z,62.30
2017-06-02T00:19:46.111Z,61.60
2017-06-02T00:22:14.392Z,62.10
2017-06-02T00:24:42.647Z,62.50
2017-06-02T00:27:10.891Z,61.70
2017-06-02T00:29:39.169Z,62.60
2017-06-02T00:32:07.414Z,62.40
2017-06-02T00:34:52.789Z,63.10
2017-06-02T00:37:21.036Z,63.50
2017-06-02T00:39:49.312Z,64.10
2017-06-02T00:42:30.832Z,62.80
2017-06-02T00:44:59.070Z,62.90
2017-06-02T00:47:27.309Z,63.20
2017-06-02T00:49:55.551Z,63.50
2017-06-02T00:52:23.784Z,63.00
2017-06-02T00:54:52.025Z,62.60
2017-06-02T00:57:20.259Z,62.60
2017-06-02T00:59:48.496Z,62.60
2017-06-02T01:02:16.744Z,62.50
2017-06-02T01:04:44.983Z,62.90
2017-06-02T01:07:13.238Z,62.10
2017-06-02T01:12:35.117Z,62.30
2017-06-02T01:15:03.385Z,61.90
2017-06-02T01:17:31.637Z,61.70
2017-06-02T01:19:59.883Z,61.50
2017-06-02T01:22:28.154Z,62.10
2017-06-02T01:24:56.385Z,63.30
2017-06-02T01:27:24.629Z,64.30
2017-06-02T01:29:52.975Z,64.50
2017-06-02T01:32:21.214Z,64.30
2017-06-02T01:34:49.435Z,64.30
2017-06-02T01:37:17.711Z,64.90
2017-06-02T01:39:45.956Z,64.20
2017-06-02T01:42:14.219Z,63.40
2017-06-02T01:44:42.448Z,63.50
2017-06-02T01:47:10.697Z,63.20
2017-06-02T01:49:38.932Z,63.00
2017-06-02T01:52:07.159Z,62.80
2017-06-02T01:54:35.411Z,63.00
2017-06-02T01:57:03.654Z,62.50
2017-06-02T01:59:31.979Z,62.60
2017-06-02T02:02:00.221Z,62.80
2017-06-02T02:04:28.463Z,61.90
2017-06-02T02:06:56.695Z,61.80
2017-06-02T02:09:25.257Z,61.60
2017-06-02T02:11:53.501Z,62.00
2017-06-02T02:14:21.732Z,61.80
2017-06-02T02:16:49.971Z,62.00
2017-06-02T02:19:18.207Z,61.80
2017-06-02T02:21:46.452Z,62.00
2017-06-02T02:24:14.688Z,62.30
2017-06-02T02:26:42.931Z,62.80
2017-06-02T02:29:11.186Z,62.90
2017-06-02T02:31:39.438Z,62.80
2017-06-02T02:34:07.683Z,64.20
2017-06-02T02:36:35.923Z,64.10
2017-06-02T02:39:04.151Z,64.60
2017-06-02T02:41:32.388Z,63.90
2017-06-02T02:44:00.620Z,63.90
2017-06-02T02:46:28.919Z,64.80
2017-06-02T02:48:57.169Z,64.50
2017-06-02T02:51:25.412Z,64.20
2017-06-02T02:53:53.655Z,63.20
2017-06-02T02:56:21.900Z,64.10
2017-06-02T02:58:50.155Z,63.30
2017-06-02T03:01:18.424Z,62.50
2017-06-02T03:03:46.667Z,62.60
2017-06-02T03:06:14.927Z,62.00
2017-06-02T03:08:43.190Z,61.30
2017-06-02T03:11:11.434Z,61.10
2017-06-02T03:13:39.684Z,60.90
2017-06-02T03:16:07.931Z,60.30
2017-06-02T03:18:36.194Z,60.30
2017-06-02T03:21:04.416Z,60.30
2017-06-02T03:23:32.677Z,60.00
2017-06-02T03:26:00.909Z,61.60
2017-06-02T03:28:29.165Z,61.70
2017-06-02T03:30:57.412Z,61.80
2017-06-02T03:33:25.672Z,62.10
2017-06-02T03:35:53.915Z,62.20
2017-06-02T03:38:22.154Z,62.40
2017-06-02T03:40:50.457Z,63.20
2017-06-02T03:43:18.724Z,63.20
2017-06-02T03:45:46.976Z,63.50
2017-06-02T03:48:15.210Z,63.50
2017-06-02T03:50:43.459Z,63.40
2017-06-02T03:53:11.707Z,63.80
2017-06-02T03:55:39.982Z,63.70
2017-06-02T03:58:08.216Z,64.30
2017-06-02T04:00:36.467Z,63.90
2017-06-02T04:03:04.695Z,64.40
2017-06-02T04:05:32.936Z,63.80
2017-06-02T04:08:01.169Z,64.60
2017-06-02T04:10:29.416Z,65.00
2017-06-02T04:12:57.644Z,65.40
2017-06-02T04:15:25.923Z,65.50
2017-06-02T04:17:54.152Z,65.70
2017-06-02T04:20:22.397Z,65.40
2017-06-02T04:22:50.635Z,65.30
2017-06-02T04:25:18.872Z,65.30
2017-06-02T04:27:47.177Z,65.20
2017-06-02T04:30:15.431Z,65.20
2017-06-02T04:32:43.679Z,65.10
2017-06-02T04:35:12.303Z,65.10
2017-06-02T04:37:40.585Z,65.00
2017-06-02T04:40:08.824Z,67.00
2017-06-02T04:42:37.068Z,65.00
2017-06-02T04:45:05.315Z,65.20
2017-06-02T04:47:33.551Z,65.10
2017-06-02T04:50:01.791Z,65.40
2017-06-02T04:52:30.044Z,65.00
2017-06-02T04:54:58.289Z,64.90
2017-06-02T04:57:26.586Z,64.60
2017-06-02T04:59:54.837Z,64.20
2017-06-02T05:02:23.072Z,63.50
2017-06-02T05:04:51.330Z,64.60
2017-06-02T05:07:19.565Z,65.10
2017-06-02T05:09:47.811Z,65.60
2017-06-02T05:12:16.044Z,65.80
2017-06-02T05:14:44.282Z,65.60
2017-06-02T05:17:12.524Z,66.10
2017-06-02T05:19:40.781Z,64.00
2017-06-02T05:22:09.041Z,64.50
2017-06-02T05:24:37.272Z,65.80
2017-06-02T05:27:05.513Z,65.90
2017-06-02T05:29:33.755Z,66.30
2017-06-02T05:32:01.991Z,65.80
2017-06-02T05:34:30.260Z,65.20
2017-06-02T05:36:58.497Z,64.40
2017-06-02T05:39:26.754Z,65.20
2017-06-02T05:41:55.000Z,64.10
2017-06-02T05:44:23.228Z,63.70
2017-06-02T05:46:51.483Z,61.60
2017-06-02T05:49:19.728Z,61.00
2017-06-02T05:51:47.963Z,61.10
2017-06-02T05:54:16.228Z,60.90
2017-06-02T05:56:44.467Z,60.70
2017-06-02T05:59:12.712Z,60.60
2017-06-02T06:01:40.940Z,60.90
2017-06-02T06:04:09.210Z,60.70
2017-06-02T06:06:43.492Z,60.80
2017-06-02T06:09:11.723Z,60.60
2017-06-02T06:11:40.051Z,60.20
2017-06-02T06:14:08.316Z,60.20
2017-06-02T06:16:36.581Z,59.90
2017-06-02T06:19:04.824Z,59.50
2017-06-02T06:21:33.080Z,59.40
2017-06-02T06:24:01.322Z,59.60
2017-06-02T06:26:29.568Z,60.20
2017-06-02T06:28:57.787Z,59.80
2017-06-02T06:31:26.048Z,59.40
2017-06-02T06:33:54.284Z,58.20
2017-06-02T06:36:22.554Z,57.60
2017-06-02T06:38:50.780Z,58.00
2017-06-02T06:41:19.032Z,57.50
2017-06-02T06:43:47.265Z,58.50
2017-06-02T06:46:15.507Z,58.50
2017-06-02T06:48:43.745Z,58.00
2017-06-02T06:51:11.987Z,59.00
2017-06-02T06:53:40.229Z,58.70
2017-06-02T06:56:08.464Z,58.90
2017-06-02T06:58:36.732Z,59.20
2017-06-02T07:01:04.965Z,58.50
2017-06-02T07:03:33.213Z,58.40
2017-06-02T07:06:01.452Z,58.80
2017-06-02T07:08:29.776Z,58.60
2017-06-02T07:10:57.992Z,58.90
2017-06-02T07:13:26.251Z,58.20
2017-06-02T07:15:54.505Z,57.00
2017-06-02T07:18:22.753Z,58.10
2017-06-02T07:20:50.989Z,57.40
2017-06-02T07:23:19.263Z,55.90
2017-06-02T07:25:47.521Z,56.70
2017-06-02T07:28:15.764Z,56.00
2017-06-02T07:30:44.008Z,54.90
2017-06-02T07:33:12.275Z,54.60
2017-06-02T07:35:40.661Z,53.60
2017-06-02T07:40:47.670Z,52.00
2017-06-02T07:43:21.294Z,52.70
2017-06-02T07:45:49.573Z,52.90
2017-06-02T07:48:17.820Z,52.60
2017-06-02T07:50:46.067Z,52.70
2017-06-02T07:53:14.308Z,52.60
2017-06-02T07:55:42.565Z,52.60
2017-06-02T07:58:10.812Z,51.60
2017-06-02T08:00:39.056Z,52.30
2017-06-02T08:03:07.287Z,52.20
2017-06-02T08:05:35.532Z,52.20
2017-06-02T08:08:03.763Z,51.20
2017-06-02T08:10:32.037Z,51.30
2017-06-02T08:13:00.276Z,52.10
2017-06-02T08:15:28.528Z,52.10
2017-06-02T08:17:56.783Z,51.50
2017-06-02T08:20:25.037Z,52.60
2017-06-02T08:22:53.283Z,51.70
2017-06-02T08:25:21.524Z,52.40
2017-06-02T08:27:49.773Z,52.10
2017-06-02T08:30:18.008Z,51.80
2017-06-02T08:32:46.239Z,51.50
2017-06-02T08:35:15.432Z,51.50
2017-06-02T08:37:43.699Z,51.10
2017-06-02T08:40:11.968Z,50.90
2017-06-02T08:42:40.218Z,51.10
2017-06-02T08:45:08.468Z,52.10
2017-06-02T08:47:36.715Z,50.60
2017-06-02T08:50:04.958Z,50.70
2017-06-02T08:52:33.193Z,50.50
2017-06-02T08:55:02.197Z,50.40
2017-06-02T08:57:30.453Z,50.00
2017-06-02T08:59:58.717Z,50.80
2017-06-02T09:02:26.962Z,51.10
2017-06-02T09:04:55.195Z,50.10
2017-06-02T09:07:23.439Z,50.00
2017-06-02T09:09:51.713Z,50.60
2017-06-02T09:12:19.943Z,51.10
2017-06-02T09:14:48.209Z,51.10
2017-06-02T09:17:16.456Z,50.90
2017-06-02T09:19:44.721Z,51.40
2017-06-02T09:22:12.959Z,50.80
2017-06-02T09:24:41.241Z,50.80
2017-06-02T09:27:09.463Z,50.30
2017-06-02T09:29:37.728Z,50.40
2017-06-02T09:32:05.960Z,50.30
2017-06-02T09:34:34.197Z,49.60
2017-06-02T09:37:02.447Z,50.10
2017-06-02T09:39:30.687Z,50.60
2017-06-02T09:41:58.927Z,49.30
2017-06-02T09:44:27.176Z,47.60
2017-06-02T09:46:55.427Z,49.60
2017-06-02T09:49:23.700Z,49.70
2017-06-02T09:51:51.969Z,47.60
2017-06-02T09:54:20.223Z,47.00
2017-06-02T09:56:49.995Z,45.70
2017-06-02T09:59:18.249Z,46.20
2017-06-02T10:01:46.492Z,46.00
2017-06-02T10:04:14.728Z,45.50
2017-06-02T10:06:42.989Z,45.40
2017-06-02T10:09:11.231Z,46.30
2017-06-02T10:11:39.483Z,45.60
2017-06-02T10:14:07.716Z,45.40
2017-06-02T10:16:35.952Z,45.30
2017-06-02T10:19:04.213Z,45.90
2017-06-02T10:21:32.450Z,45.50
2017-06-02T10:24:00.724Z,45.00
2017-06-02T10:26:28.959Z,46.20
2017-06-02T10:28:57.199Z,45.60
2017-06-02T10:31:25.449Z,45.50
2017-06-02T10:33:53.692Z,46.20
2017-06-02T10:36:22.020Z,45.50
2017-06-02T10:38:50.263Z,46.20
2017-06-02T10:41:18.498Z,46.40
2017-06-02T10:43:46.767Z,47.20
2017-06-02T10:46:15.018Z,46.40
2017-06-02T10:48:43.253Z,47.00
2017-06-02T10:51:14.819Z,47.40
2017-06-02T10:53:43.070Z,46.00
2017-06-02T10:56:11.312Z,46.70
2017-06-02T10:58:39.560Z,46.80
2017-06-02T11:01:07.815Z,46.70
2017-06-02T11:03:36.059Z,46.20
2017-06-02T11:06:04.335Z,46.20
2017-06-02T11:08:32.572Z,46.20
2017-06-02T11:11:00.821Z,46.90
2017-06-02T11:13:29.985Z,46.20
2017-06-02T11:15:58.224Z,45.20
2017-06-02T11:18:26.483Z,45.60
2017-06-02T11:20:54.736Z,45.20
2017-06-02T11:23:23.042Z,45.70
2017-06-02T11:25:51.300Z,45.50
2017-06-02T11:28:19.533Z,46.10
2017-06-02T11:30:47.799Z,45.30
2017-06-02T11:33:16.032Z,44.50
2017-06-02T11:35:44.271Z,44.70
2017-06-02T11:38:12.510Z,46.10
2017-06-02T11:40:40.744Z,46.10
2017-06-02T11:43:08.992Z,45.80
2017-06-02T11:45:37.240Z,45.00
2017-06-02T11:48:05.509Z,44.60
2017-06-02T11:50:33.751Z,44.40
2017-06-02T11:53:02.016Z,44.70
2017-06-02T11:55:30.279Z,44.40
2017-06-02T11:57:58.608Z,44.20
2017-06-02T12:00:26.864Z,43.80
2017-06-02T12:02:55.100Z,43.30
2017-06-02T12:05:23.368Z,42.10
2017-06-02T12:07:51.609Z,42.90
2017-06-02T12:10:30.167Z,43.90
2017-06-02T12:12:58.410Z,43.40
2017-06-02T12:15:26.675Z,42.80
2017-06-02T12:31:08.428Z,42.80
2017-06-02T12:33:35.892Z,41.40
2017-06-02T12:36:03.360Z,40.90
2017-06-02T12:38:30.827Z,41.90
2017-06-02T12:40:58.304Z,42.10
2017-06-02T12:43:26.528Z,41.20
2017-06-02T12:45:54.048Z,41.10
2017-06-02T12:48:22.268Z,41.60
2017-06-02T12:50:49.752Z,41.50
2017-06-02T12:53:17.978Z,41.60
2017-06-02T12:55:45.444Z,41.20
2017-06-02T12:58:12.915Z,41.30
2017-06-02T13:00:40.370Z,40.90
2017-06-02T13:03:07.849Z,41.20
2017-06-02T13:05:35.303Z,40.20
2017-06-02T13:08:02.764Z,39.10
2017-06-02T13:10:30.249Z,40.20
2017-06-02T13:12:58.490Z,39.80
2017-06-02T13:15:25.975Z,39.70
2017-06-02T13:17:54.225Z,40.60
2017-06-02T13:20:21.697Z,40.50
2017-06-02T13:23:02.419Z,41.10
2017-06-02T13:25:29.891Z,40.70
2017-06-02T13:27:57.382Z,41.00
2017-06-02T13:30:25.608Z,41.60
2017-06-02T13:32:53.085Z,42.00
2017-06-02T13:35:20.693Z,42.70
2017-06-02T13:40:41.336Z,44.40
2017-06-02T13:43:08.922Z,46.70
2017-06-02T13:48:29.271Z,51.40
2017-06-02T13:56:43.478Z,60.90
2017-06-02T13:59:10.967Z,65.70
2017-06-02T14:01:38.471Z,66.30
2017-06-02T14:04:06.744Z,76.00
2017-06-02T14:06:34.985Z,76.90
2017-06-02T14:09:02.488Z,76.60
2017-06-02T14:14:23.635Z,74.90
2017-06-02T14:16:51.118Z,83.10
2017-06-02T14:19:18.614Z,90.60
2017-06-02T14:21:46.103Z,84.70
2017-06-02T14:24:13.583Z,89.30
2017-06-02T14:26:41.069Z,88.00
2017-06-02T14:29:08.576Z,88.50
2017-06-02T14:31:36.047Z,88.90
2017-06-02T14:34:03.528Z,90.20
2017-06-02T14:36:31.016Z,86.70
2017-06-02T14:41:51.760Z,90.80
2017-06-02T14:44:20.003Z,91.30
2017-06-02T14:46:47.495Z,91.20
2017-06-02T14:49:15.722Z,91.50
2017-06-02T15:06:16.503Z,89.10
2017-06-02T15:08:44.736Z,89.60
2017-06-02T15:11:12.199Z,89.50
2017-06-02T15:13:39.668Z,86.60
2017-06-02T15:16:07.149Z,89.90
2017-06-02T15:18:35.417Z,88.80
2017-06-02T15:21:03.662Z,87.30
2017-06-02T15:26:24.124Z,90.60
2017-06-02T15:28:51.608Z,84.40
2017-06-02T15:31:27.224Z,88.40
2017-06-02T15:33:54.717Z,90.20
2017-06-02T15:36:22.180Z,84.70
2017-06-02T15:38:49.648Z,87.60
2017-06-02T15:41:17.113Z,90.40
2017-06-02T15:43:44.575Z,86.50
2017-06-02T15:46:12.041Z,88.50
2017-06-02T15:48:39.532Z,90.90
2017-06-02T15:51:06.998Z,91.20
2017-06-02T15:53:34.459Z,89.60
2017-06-02T15:56:01.968Z,90.00
2017-06-02T15:58:29.431Z,89.60
2017-06-02T16:00:56.912Z,90.20
2017-06-02T16:03:24.391Z,87.90
2017-06-02T16:05:51.859Z,90.40
2017-06-02T16:08:19.320Z,90.00
2017-06-02T16:10:46.793Z,88.60
2017-06-02T16:13:14.273Z,86.70
2017-06-02T16:15:41.739Z,90.90
2017-06-02T16:18:09.964Z,91.70
2017-06-02T16:20:37.465Z,91.60
2017-06-02T16:23:04.932Z,91.40
2017-06-02T16:28:26.969Z,91.80
2017-06-02T16:30:54.444Z,90.40
2017-06-02T16:33:22.671Z,89.80
2017-06-02T16:35:50.143Z,89.60
2017-06-02T16:38:17.618Z,85.10
2017-06-02T16:46:31.472Z,77.40
2017-06-02T16:51:52.708Z,60.10
2017-06-02T16:54:20.180Z,60.20
2017-06-02T16:56:47.676Z,57.40
2017-06-02T16:59:15.141Z,58.60
2017-06-02T17:04:37.051Z,63.20
2017-06-02T17:07:04.511Z,63.20
2017-06-02T17:09:31.983Z,63.90
2017-06-02T17:12:00.235Z,71.40
2017-06-02T17:14:27.727Z,71.30
2017-06-02T17:16:55.203Z,74.20
2017-06-02T17:19:22.664Z,74.60
2017-06-02T17:21:50.131Z,76.80
2017-06-02T17:30:03.747Z,81.10
2017-06-02T17:46:58.468Z,88.90
2017-06-02T17:49:25.936Z,88.70
2017-06-02T17:51:53.411Z,86.30
2017-06-02T17:54:20.868Z,85.20
2017-06-02T17:56:48.337Z,82.50
2017-06-02T18:02:09.395Z,84.90
2017-06-02T18:04:36.872Z,85.60
2017-06-02T18:07:04.351Z,87.70
2017-06-02T18:09:31.821Z,86.40
2017-06-02T18:11:59.299Z,83.30
2017-06-02T18:14:26.764Z,81.80
2017-06-02T18:16:54.237Z,84.20
2017-06-02T18:19:21.720Z,83.20
2017-06-02T18:21:49.252Z,84.30
2017-06-02T18:24:16.736Z,86.70
2017-06-02T18:26:44.955Z,89.70
2017-06-02T18:29:12.415Z,89.60
2017-06-02T18:31:39.888Z,87.40
2017-06-02T18:34:07.353Z,87.20
2017-06-02T18:36:34.820Z,85.60
2017-06-02T18:41:55.641Z,83.30
2017-06-02T18:44:23.904Z,85.80
2017-06-02T18:46:51.365Z,85.40
2017-06-02T18:49:18.848Z,86.30
2017-06-02T18:51:47.080Z,87.30
2017-06-02T18:54:14.557Z,87.20
2017-06-02T18:56:42.019Z,88.20
2017-06-02T18:59:09.493Z,89.40
2017-06-02T19:01:37.749Z,90.10
2017-06-02T19:04:05.237Z,90.00
2017-06-02T19:06:33.487Z,89.10
2017-06-02T19:09:00.967Z,89.10
2017-06-02T19:11:28.455Z,90.10
2017-06-02T19:13:55.915Z,90.30
2017-06-02T19:16:36.978Z,90.10
2017-06-02T19:19:04.448Z,90.40
2017-06-02T19:21:31.915Z,90.30
2017-06-02T19:26:53.091Z,88.40
2017-06-02T19:29:21.313Z,89.40
2017-06-02T19:31:48.790Z,89.30
2017-06-02T19:34:16.257Z,90.00
2017-06-02T19:36:43.720Z,90.40
2017-06-02T19:42:05.172Z,90.90
2017-06-02T19:44:33.399Z,90.70
2017-06-02T19:47:00.875Z,90.60
2017-06-02T19:52:21.913Z,91.10
2017-06-02T19:54:49.369Z,91.00
2017-06-02T19:57:16.836Z,91.30
2017-06-02T19:59:44.299Z,91.60
2017-06-02T20:02:12.535Z,91.70
2017-06-02T20:04:40.023Z,91.70
2017-06-02T20:07:07.506Z,91.80
2017-06-02T20:09:35.735Z,91.80
2017-06-02T20:12:03.202Z,92.10
2017-06-02T20:14:30.680Z,91.30
2017-06-02T20:16:58.913Z,91.40
2017-06-02T20:19:26.376Z,91.40
2017-06-02T20:21:53.853Z,91.20
2017-06-02T20:24:21.344Z,91.20
2017-06-02T20:26:49.573Z,91.20
2017-06-02T20:29:17.101Z,91.20
2017-06-02T20:31:44.576Z,91.00
2017-06-02T20:34:12.052Z,91.10
2017-06-02T20:36:39.532Z,90.90
2017-06-02T20:39:07.009Z,90.80
2017-06-02T20:41:35.250Z,90.70
2017-06-02T20:44:02.733Z,90.70
2017-06-02T20:46:30.964Z,91.10
2017-06-02T20:48:58.603Z,91.10
2017-06-02T20:51:26.069Z,91.00
2017-06-02T20:56:46.831Z,91.20
2017-06-02T20:59:14.297Z,90.90
2017-06-02T21:01:41.766Z,91.40
2017-06-02T21:04:10.004Z,90.90
2017-06-02T21:06:37.474Z,90.90
2017-06-02T21:09:04.975Z,91.20
2017-06-02T21:11:32.453Z,91.30
2017-06-02T21:13:59.939Z,90.70
2017-06-02T21:16:27.463Z,90.70
2017-06-02T21:18:54.912Z,91.00
2017-06-02T21:21:22.407Z,91.20
2017-06-02T21:23:49.887Z,91.40
2017-06-02T21:26:17.363Z,91.40
2017-06-02T21:28:45.604Z,91.20
2017-06-02T21:31:13.094Z,91.10
2017-06-02T21:33:41.319Z,91.50
2017-06-02T21:36:08.861Z,91.50
2017-06-02T21:38:36.319Z,91.70
2017-06-02T21:41:03.823Z,91.40
2017-06-02T21:43:31.309Z,91.40
2017-06-02T21:45:59.532Z,90.90
2017-06-02T21:48:27.012Z,90.90
2017-06-02T21:50:54.476Z,91.30
2017-06-02T21:53:21.939Z,91.20
2017-06-02T21:58:43.872Z,91.10
2017-06-02T22:01:11.364Z,91.00
2017-06-02T22:03:38.911Z,90.90
2017-06-02T22:06:07.159Z,90.80
2017-06-02T22:08:34.633Z,90.80
2017-06-02T22:11:02.122Z,90.40
2017-06-02T22:13:29.606Z,90.90
2017-06-02T22:15:57.084Z,91.30
2017-06-02T22:18:24.552Z,91.30
2017-06-02T22:20:52.050Z,91.10
2017-06-02T22:26:13.972Z,91.10
2017-06-02T22:28:42.207Z,91.30
2017-06-02T22:31:09.696Z,91.10
2017-06-02T22:33:37.163Z,91.20
2017-06-02T22:36:05.403Z,91.30
2017-06-02T22:38:32.884Z,91.40
2017-06-02T22:41:00.364Z,91.20
2017-06-02T22:43:51.992Z,91.40
2017-06-02T22:46:20.273Z,91.40
2017-06-02T22:48:47.749Z,91.30
2017-06-02T22:54:09.545Z,91.10
2017-06-02T22:56:37.028Z,91.00
2017-06-02T23:07:45.980Z,90.50
2017-06-02T23:10:13.463Z,90.20
2017-06-02T23:12:40.954Z,90.30
2017-06-02T23:15:08.428Z,90.10
2017-06-02T23:17:35.915Z,90.10
2017-06-02T23:20:03.400Z,89.00
2017-06-02T23:22:31.636Z,89.30
2017-06-02T23:24:59.123Z,89.20
2017-06-02T23:27:27.360Z,89.30
2017-06-02T23:29:54.844Z,89.20
2017-06-02T23:32:22.317Z,89.30
2017-06-02T23:34:50.551Z,89.70
2017-06-02T23:37:18.011Z,89.00
2017-06-02T23:39:45.475Z,88.70
2017-06-02T23:42:12.936Z,88.70
2017-06-02T23:44:40.503Z,88.90
2017-06-02T23:47:07.971Z,88.80
2017-06-02T23:49:36.203Z,88.50
2017-06-02T23:52:03.666Z,88.80
2017-06-02T23:54:31.155Z,88.20
2017-06-02T23:56:58.764Z,87.60
2017-06-02T23:59:26.232Z,86.80
